GOSP

Podor Airport

Podor, Senegal
METAR GOSP 180600Z 36002KT CAVOK 17/06 Q1014
Observed Flight Rules
Dec-18 @ 06:00 UTC (3 hours ago) Visual Flight Rules
Wind Visibility Clouds
360° at 2 knots 10,000+ meters
  • Clear skies
Temperatures Readings
Current 17°C / 63°F
Dewpoint 6°C / 43°F
Humidity 49%
Altimeter 29.94" Hg
Pressure 1014 hPa
Elevation 7
METAR GOSP 180600Z 36002KT CAVOK 17/06 Q1014
Observed Flight Rules
Dec-18 @ 06:00 UTC
(3 hours ago)
VFR
Wind Visibility
360° at 2 knots 10,000+ meters
Clouds
  • Clear skies
Temperature Dewpoint
17°C / 63°F 6°C / 43°F
Humidity Altimeter Pressure
49% 29.94" Hg 1014 hPa